createdAt,value
2018-12-28T04:01:00.907Z,6.10
2018-12-28T04:02:00.950Z,7.30
2018-12-28T04:03:01.390Z,7.40
2018-12-28T04:04:01.824Z,7.30
2018-12-28T04:05:01.870Z,8.00
2018-12-28T04:06:01.798Z,8.60
2018-12-28T04:07:02.226Z,9.40
2018-12-28T04:08:02.047Z,10.10
2018-12-28T04:09:02.366Z,9.40
2018-12-28T04:10:02.807Z,9.10
2018-12-28T04:12:02.890Z,9.30
2018-12-28T04:13:03.014Z,9.40
2018-12-28T04:14:03.039Z,9.90
2018-12-28T04:15:03.184Z,10.00
2018-12-28T04:16:03.695Z,9.60
2018-12-28T04:17:03.473Z,9.60
2018-12-28T04:18:03.760Z,9.90
2018-12-28T04:19:04.243Z,9.30
2018-12-28T04:20:04.021Z,8.50
2018-12-28T04:21:04.625Z,8.40
2018-12-28T04:22:02.717Z,8.10
2018-12-28T04:23:02.569Z,8.80
2018-12-28T04:24:03.021Z,8.70
2018-12-28T04:25:02.823Z,9.30
2018-12-28T04:26:02.933Z,8.70
2018-12-28T04:27:03.329Z,9.30
2018-12-28T04:28:03.611Z,8.50
2018-12-28T04:29:04.180Z,8.90
2018-12-28T04:30:03.961Z,8.30
2018-12-28T04:31:04.092Z,8.40
2018-12-28T04:32:04.146Z,7.50
2018-12-28T04:33:04.333Z,8.20
2018-12-28T04:34:04.295Z,8.10
2018-12-28T04:35:04.524Z,8.40
2018-12-28T04:36:04.726Z,8.00
2018-12-28T04:37:04.819Z,9.10
2018-12-28T04:38:05.254Z,8.10
2018-12-28T04:39:05.467Z,8.30
2018-12-28T04:40:08.959Z,8.90
2018-12-28T04:41:05.450Z,8.70
2018-12-28T04:42:05.672Z,8.70
2018-12-28T04:43:05.887Z,8.90
2018-12-28T04:44:06.013Z,8.70
2018-12-28T04:45:06.200Z,8.90
2018-12-28T04:46:06.314Z,9.20
2018-12-28T04:47:06.545Z,8.50
2018-12-28T04:48:06.597Z,8.90
2018-12-28T04:49:06.781Z,8.50
2018-12-28T04:50:06.981Z,7.80
2018-12-28T04:51:07.134Z,8.50
2018-12-28T04:52:07.283Z,7.80
2018-12-28T04:53:07.459Z,7.80
2018-12-28T04:54:07.570Z,8.20
2018-12-28T04:55:07.717Z,8.40
2018-12-28T04:56:08.146Z,7.90
2018-12-28T04:57:08.112Z,8.20
2018-12-28T04:58:08.260Z,8.30
2018-12-28T04:59:08.520Z,8.80
2018-12-28T05:00:09.080Z,8.60
2018-12-28T05:01:08.912Z,8.80
2018-12-28T05:02:09.051Z,8.90
2018-12-28T05:03:09.291Z,8.20
2018-12-28T05:04:09.256Z,8.60
2018-12-28T05:05:09.715Z,8.50
2018-12-28T05:06:10.306Z,8.40
2018-12-28T05:07:10.000Z,8.70
2018-12-28T05:08:10.014Z,8.70
2018-12-28T05:09:10.186Z,8.10
2018-12-28T05:10:16.690Z,8.30
2018-12-28T05:11:10.543Z,8.20
2018-12-28T05:12:10.631Z,8.50
2018-12-28T05:13:10.797Z,8.30
2018-12-28T05:14:11.088Z,8.60
2018-12-28T05:15:11.215Z,8.40
2018-12-28T05:16:11.387Z,9.10
2018-12-28T05:17:11.440Z,9.60
2018-12-28T05:18:11.671Z,10.20
2018-12-28T05:19:11.778Z,10.70
2018-12-28T05:20:11.929Z,10.80
2018-12-28T05:21:12.140Z,10.30
2018-12-28T05:22:12.322Z,10.30
2018-12-28T05:23:12.381Z,10.40
2018-12-28T05:24:12.574Z,9.60
2018-12-28T05:25:13.152Z,10.00
2018-12-28T05:26:13.134Z,9.30
2018-12-28T05:27:13.473Z,9.60
2018-12-28T05:28:13.798Z,9.00
2018-12-28T05:29:13.950Z,9.70
2018-12-28T05:30:14.064Z,9.50
2018-12-28T05:31:14.476Z,9.00
2018-12-28T05:32:14.323Z,8.90
2018-12-28T05:33:14.432Z,8.80
2018-12-28T05:34:15.289Z,9.00
2018-12-28T05:35:14.991Z,9.80
2018-12-28T05:36:15.445Z,9.10
2018-12-28T05:37:15.533Z,9.00
2018-12-28T05:38:15.254Z,8.60
2018-12-28T05:39:15.337Z,8.50
2018-12-28T05:40:15.516Z,8.70
2018-12-28T05:41:15.796Z,8.50
2018-12-28T05:42:15.693Z,8.30
2018-12-28T05:43:16.534Z,7.90
2018-12-28T05:44:16.393Z,8.30
2018-12-28T05:45:16.668Z,8.10
2018-12-28T05:46:16.546Z,8.20
2018-12-28T05:47:16.816Z,8.50
2018-12-28T05:48:16.793Z,8.50
2018-12-28T05:49:17.079Z,7.80
2018-12-28T05:50:17.176Z,8.00
2018-12-28T05:51:17.264Z,8.50
2018-12-28T05:52:17.593Z,8.20
2018-12-28T05:53:17.614Z,8.50
2018-12-28T05:54:17.785Z,8.20
2018-12-28T05:55:17.978Z,8.80
2018-12-28T05:56:17.893Z,8.40
2018-12-28T05:57:18.569Z,8.00
2018-12-28T05:58:18.398Z,7.80
2018-12-28T05:59:18.609Z,8.00
2018-12-28T06:00:18.824Z,7.80
2018-12-28T06:02:19.457Z,8.10
2018-12-28T06:03:19.083Z,7.70
2018-12-28T06:04:19.356Z,7.60
2018-12-28T06:05:19.785Z,7.90
2018-12-28T06:06:19.672Z,7.60
2018-12-28T06:07:20.027Z,7.90
2018-12-28T06:08:21.040Z,7.50
2018-12-28T06:09:20.385Z,7.90
2018-12-28T06:10:20.500Z,7.90
2018-12-28T06:11:20.569Z,7.80
2018-12-28T06:12:20.734Z,7.50
2018-12-28T06:13:21.012Z,7.80
2018-12-28T06:14:21.157Z,7.90
2018-12-28T06:15:21.281Z,8.10
2018-12-28T06:16:21.450Z,7.70
2018-12-28T06:18:22.000Z,7.60
2018-12-28T06:19:21.912Z,7.90
2018-12-28T06:20:22.530Z,7.90
2018-12-28T06:21:22.972Z,7.40
2018-12-28T06:22:22.194Z,7.70
2018-12-28T06:23:23.520Z,7.20
2018-12-28T06:24:22.904Z,7.70
2018-12-28T06:25:23.054Z,7.90
2018-12-28T06:26:23.261Z,8.60
2018-12-28T06:27:23.485Z,9.50
2018-12-28T06:28:23.591Z,9.20
2018-12-28T06:29:23.605Z,8.40
2018-12-28T06:30:23.950Z,8.70
2018-12-28T06:31:24.099Z,8.00
2018-12-28T06:32:24.235Z,8.30
2018-12-28T06:33:24.437Z,8.20
2018-12-28T06:34:24.665Z,8.10
2018-12-28T06:35:24.534Z,7.90
2018-12-28T06:36:25.648Z,7.60
2018-12-28T06:37:25.435Z,8.10
2018-12-28T06:38:25.887Z,8.00
2018-12-28T06:39:27.631Z,8.00
2018-12-28T06:40:25.891Z,7.70
2018-12-28T06:41:25.969Z,8.20
2018-12-28T06:42:26.198Z,7.90
2018-12-28T06:43:26.534Z,7.60
2018-12-28T06:44:26.758Z,7.50
2018-12-28T06:45:26.371Z,8.00
2018-12-28T06:46:27.125Z,7.60
2018-12-28T06:47:26.998Z,7.60
2018-12-28T06:48:27.149Z,7.60
2018-12-28T06:49:27.125Z,7.80
2018-12-28T06:50:27.325Z,7.20
2018-12-28T06:51:27.545Z,7.80
2018-12-28T06:52:27.408Z,7.40
2018-12-28T06:53:27.593Z,7.20
2018-12-28T06:54:27.769Z,7.90
2018-12-28T06:55:27.937Z,8.70
2018-12-28T06:56:28.261Z,8.10
2018-12-28T06:57:28.278Z,8.40
2018-12-28T06:58:28.514Z,7.20
2018-12-28T06:59:29.369Z,8.00
2018-12-28T07:02:14.434Z,7.50
2018-12-28T07:03:13.149Z,8.10
2018-12-28T07:04:13.897Z,7.90
2018-12-28T07:05:31.421Z,7.90
2018-12-28T07:06:12.195Z,7.50
2018-12-28T07:07:12.685Z,7.90
2018-12-28T07:08:12.522Z,7.80
2018-12-28T07:09:10.581Z,7.90
2018-12-28T07:10:10.835Z,8.00
2018-12-28T07:11:11.214Z,8.00
2018-12-28T07:12:11.279Z,8.20
2018-12-28T07:13:11.482Z,7.90
2018-12-28T07:14:11.592Z,8.30
2018-12-28T07:15:12.297Z,7.90
2018-12-28T07:16:11.664Z,7.70
2018-12-28T07:17:11.994Z,7.70
2018-12-28T07:18:12.255Z,8.80
2018-12-28T07:19:12.383Z,8.40
2018-12-28T07:20:12.530Z,7.60
2018-12-28T07:21:12.662Z,8.10
2018-12-28T07:22:12.806Z,9.30
2018-12-28T07:23:12.979Z,9.50
2018-12-28T07:24:13.089Z,8.50
2018-12-28T07:25:13.329Z,9.50
2018-12-28T07:26:13.548Z,9.90
2018-12-28T07:27:13.688Z,9.80
2018-12-28T07:28:13.797Z,8.50
2018-12-28T07:29:13.882Z,9.30
2018-12-28T07:30:14.018Z,10.10
2018-12-28T07:31:14.186Z,10.00
2018-12-28T07:32:14.856Z,9.80
2018-12-28T07:33:14.573Z,10.00
2018-12-28T07:34:14.628Z,9.90
2018-12-28T07:35:14.855Z,9.90
2018-12-28T07:36:14.951Z,10.00
2018-12-28T07:37:15.233Z,10.60
2018-12-28T07:38:15.379Z,10.50
2018-12-28T07:39:15.439Z,9.20
2018-12-28T07:40:15.562Z,9.60
2018-12-28T07:41:15.866Z,10.30
2018-12-28T07:42:15.921Z,9.40
2018-12-28T07:43:16.080Z,8.50
2018-12-28T07:44:16.257Z,9.10
2018-12-28T07:45:16.405Z,8.40
2018-12-28T07:46:16.575Z,8.90
2018-12-28T07:47:16.828Z,8.60
2018-12-28T07:48:16.919Z,9.10
2018-12-28T07:49:17.043Z,9.00
2018-12-28T07:50:17.373Z,9.10
2018-12-28T07:51:17.401Z,9.20
2018-12-28T07:52:17.525Z,9.40
2018-12-28T07:53:17.681Z,9.40
2018-12-28T07:54:17.828Z,8.90
2018-12-28T07:55:18.005Z,10.20
2018-12-28T07:56:18.285Z,10.10
2018-12-28T07:57:18.543Z,10.60
2018-12-28T07:58:18.574Z,9.90
2018-12-28T07:59:18.966Z,10.60
2018-12-28T08:00:18.904Z,10.60
2018-12-28T08:01:19.060Z,10.30
2018-12-28T08:02:19.929Z,11.90
2018-12-28T08:03:19.725Z,12.90
2018-12-28T08:04:24.188Z,12.70
2018-12-28T08:05:21.218Z,15.10
2018-12-28T08:07:20.186Z,12.60
2018-12-28T08:08:20.504Z,12.80
2018-12-28T08:09:20.406Z,12.90
2018-12-28T08:10:20.697Z,12.50
2018-12-28T08:11:20.997Z,13.20
2018-12-28T08:12:21.098Z,12.60
2018-12-28T08:13:21.716Z,12.00
2018-12-28T08:14:21.961Z,12.70
2018-12-28T08:15:21.406Z,13.80
2018-12-28T08:16:23.936Z,13.20
2018-12-28T08:17:43.615Z,14.70
2018-12-28T08:18:21.966Z,13.90
2018-12-28T08:19:22.230Z,14.30
2018-12-28T08:20:22.320Z,13.30
2018-12-28T08:21:22.602Z,13.80
2018-12-28T08:22:23.104Z,12.80
2018-12-28T08:23:22.693Z,12.70
2018-12-28T08:24:23.045Z,13.00
2018-12-28T08:25:23.634Z,13.10
2018-12-28T08:26:23.309Z,12.20
2018-12-28T08:27:23.349Z,12.80
2018-12-28T08:28:47.095Z,12.60
2018-12-28T08:29:28.002Z,12.10
2018-12-28T08:30:26.240Z,12.00
2018-12-28T08:31:27.738Z,11.70
2018-12-28T08:32:29.159Z,12.10
2018-12-28T08:33:25.131Z,11.90
2018-12-28T08:34:24.664Z,12.80
2018-12-28T08:35:24.673Z,12.50
2018-12-28T08:36:24.834Z,13.00
2018-12-28T08:37:25.041Z,12.80
2018-12-28T08:38:25.160Z,12.50
2018-12-28T08:39:25.220Z,12.80
2018-12-28T08:40:25.471Z,12.60
2018-12-28T08:41:25.593Z,11.90
2018-12-28T08:42:25.727Z,11.60
2018-12-28T08:43:25.943Z,11.70
2018-12-28T08:44:26.050Z,13.00
2018-12-28T08:45:26.205Z,12.50
2018-12-28T08:46:26.375Z,12.50
2018-12-28T08:47:26.475Z,12.40
2018-12-28T08:48:27.998Z,12.20
2018-12-28T08:49:26.913Z,12.70
2018-12-28T08:50:27.071Z,12.60
2018-12-28T08:51:27.225Z,12.30
2018-12-28T08:52:27.321Z,13.20
2018-12-28T08:53:27.515Z,12.40
2018-12-28T08:54:27.731Z,12.50
2018-12-28T08:55:27.795Z,12.10
2018-12-28T08:56:28.022Z,12.00
2018-12-28T08:57:28.096Z,12.50
2018-12-28T08:58:28.310Z,12.20
2018-12-28T08:59:28.395Z,11.70
2018-12-28T09:00:28.710Z,12.00
2018-12-28T09:01:28.800Z,12.30
2018-12-28T09:02:28.912Z,12.70
2018-12-28T09:03:29.067Z,12.50
2018-12-28T09:04:29.281Z,12.40
2018-12-28T09:08:14.187Z,12.20
2018-12-28T09:09:09.916Z,11.70
2018-12-28T09:10:09.906Z,12.50
2018-12-28T09:11:16.676Z,19.90
2018-12-28T09:12:09.827Z,14.70
2018-12-28T09:13:10.117Z,12.90
2018-12-28T09:14:10.530Z,13.30
2018-12-28T09:15:10.335Z,11.60
2018-12-28T09:16:11.425Z,12.10
2018-12-28T09:24:38.873Z,12.50
2018-12-28T09:26:21.257Z,10.80
2018-12-28T09:28:18.386Z,14.00
2018-12-28T09:30:18.263Z,13.60
2018-12-28T09:31:18.177Z,12.80
2018-12-28T09:32:18.284Z,13.10
2018-12-28T09:33:18.536Z,13.70
2018-12-28T09:34:18.726Z,13.50
2018-12-28T09:35:18.841Z,13.50
2018-12-28T09:36:19.943Z,13.40
2018-12-28T09:37:19.442Z,13.80
2018-12-28T09:38:20.504Z,13.70
2018-12-28T09:43:32.656Z,13.90
2018-12-28T09:44:42.652Z,15.00
2018-12-28T09:45:37.807Z,14.10
2018-12-28T09:48:37.141Z,16.60
2018-12-28T09:51:13.200Z,23.00
2018-12-28T09:52:11.678Z,16.60
2018-12-28T09:53:12.125Z,14.60
2018-12-28T09:54:13.628Z,18.10
2018-12-28T09:55:12.216Z,15.80
2018-12-28T09:56:12.791Z,13.60
2018-12-28T09:57:13.051Z,13.10
2018-12-28T09:58:12.607Z,13.60
2018-12-28T09:59:11.001Z,14.00
2018-12-28T10:00:11.074Z,15.60
2018-12-28T10:01:12.157Z,16.40
2018-12-28T10:02:11.450Z,15.40
2018-12-28T10:04:11.726Z,14.00
2018-12-28T10:05:27.484Z,14.40
2018-12-28T10:07:17.714Z,13.50
2018-12-28T10:08:20.552Z,13.20
2018-12-28T10:09:15.880Z,17.90
2018-12-28T10:10:18.456Z,12.60
2018-12-28T10:11:13.731Z,13.50
2018-12-28T10:12:15.353Z,13.20
2018-12-28T10:13:14.330Z,14.00
2018-12-28T10:14:13.652Z,12.20
2018-12-28T10:15:14.013Z,13.10
2018-12-28T10:16:13.772Z,13.70
2018-12-28T10:17:17.467Z,12.70
2018-12-28T10:19:56.541Z,16.20
2018-12-28T10:20:56.516Z,15.00
2018-12-28T10:23:59.115Z,16.90
2018-12-28T10:25:00.518Z,16.50
2018-12-28T10:25:59.984Z,12.70
2018-12-28T10:27:01.271Z,13.00
2018-12-28T10:29:18.386Z,12.30
2018-12-28T10:30:00.479Z,13.30
2018-12-28T10:31:00.811Z,12.40
2018-12-28T10:32:00.531Z,11.50
2018-12-28T10:33:01.249Z,11.20
2018-12-28T10:34:00.732Z,10.80
2018-12-28T10:34:58.719Z,11.20
2018-12-28T10:35:58.968Z,11.00
2018-12-28T10:36:59.371Z,10.70
2018-12-28T10:37:59.430Z,11.20
2018-12-28T10:39:00.041Z,10.80
2018-12-28T10:39:59.719Z,11.10
2018-12-28T10:40:59.818Z,10.80
2018-12-28T10:58:30.163Z,11.90
2018-12-28T11:03:25.382Z,10.90
2018-12-28T11:04:24.097Z,11.80
2018-12-28T11:06:16.054Z,11.40
2018-12-28T11:06:50.732Z,10.90
2018-12-28T11:07:24.763Z,11.30
2018-12-28T11:08:23.254Z,11.90
2018-12-28T11:09:30.374Z,12.50
2018-12-28T11:13:32.351Z,11.50
2018-12-28T11:14:35.279Z,11.80
2018-12-28T11:15:34.674Z,11.00
2018-12-28T11:16:39.811Z,10.80
2018-12-28T11:17:33.175Z,10.80
2018-12-28T11:18:58.262Z,11.30
2018-12-28T11:19:26.903Z,10.90
2018-12-28T11:20:31.833Z,10.90
2018-12-28T11:21:32.237Z,10.70
2018-12-28T11:22:39.835Z,11.20
2018-12-28T11:26:08.528Z,11.00
2018-12-28T11:27:10.884Z,11.00
2018-12-28T11:28:09.430Z,10.60
2018-12-28T11:29:46.202Z,11.10
2018-12-28T11:30:27.239Z,10.70
2018-12-28T11:31:11.389Z,10.80
2018-12-28T11:32:09.923Z,11.30
2018-12-28T11:33:05.017Z,10.70
2018-12-28T11:34:15.940Z,10.60
2018-12-28T11:52:48.306Z,11.20
2018-12-28T11:53:55.420Z,11.00
2018-12-28T11:58:49.904Z,10.70
2018-12-28T11:59:14.310Z,11.10
2018-12-28T12:01:58.741Z,11.20
2018-12-28T12:02:50.660Z,11.10
2018-12-28T12:03:47.992Z,11.00
2018-12-28T12:06:33.845Z,11.20
2018-12-28T12:44:38.450Z,13.30
2018-12-28T16:12:04.506Z,17.60
2018-12-28T16:13:16.499Z,17.80
2018-12-28T16:42:07.025Z,17.80
2018-12-28T16:44:54.322Z,20.90
2018-12-28T16:45:55.084Z,20.10
2018-12-28T16:46:57.193Z,21.80
2018-12-28T16:47:56.346Z,23.40
2018-12-28T16:48:55.293Z,19.90
2018-12-28T17:07:58.680Z,19.20
2018-12-28T18:01:35.720Z,24.90
2018-12-28T18:02:25.442Z,24.70
2018-12-28T18:08:09.281Z,29.50
2018-12-28T18:09:28.876Z,29.10
2018-12-28T18:10:39.947Z,29.00
2018-12-28T18:16:51.322Z,25.90
2018-12-28T18:17:52.128Z,26.30
2018-12-28T18:18:54.045Z,26.30
2018-12-28T18:20:07.731Z,26.30
2018-12-28T18:23:11.877Z,26.00
2018-12-28T18:28:06.410Z,26.70
2018-12-28T18:29:14.146Z,27.70
2018-12-28T18:30:03.481Z,28.80
2018-12-28T18:31:04.528Z,26.30
2018-12-28T18:32:05.483Z,24.90
2018-12-28T18:39:20.985Z,23.50
2018-12-28T19:21:54.692Z,22.70
2018-12-28T19:30:36.208Z,23.80
2018-12-28T19:31:37.900Z,25.10
2018-12-28T19:32:40.439Z,25.10
2018-12-28T19:33:42.483Z,24.90
2018-12-28T19:34:48.771Z,24.80
2018-12-28T19:35:37.390Z,24.80
2018-12-28T19:36:37.028Z,24.20
2018-12-28T19:37:55.855Z,25.20
2018-12-28T19:39:09.476Z,24.70
2018-12-28T19:39:37.823Z,25.40
2018-12-28T19:41:15.094Z,23.30
2018-12-28T19:41:40.105Z,24.70
2018-12-28T19:42:39.481Z,25.00
2018-12-28T19:47:31.053Z,24.60
2018-12-28T19:48:47.145Z,24.30
2018-12-28T21:50:02.891Z,30.80
